createdAt,value
2022-10-02T00:00:11.657Z,6.30
2022-10-02T00:01:11.675Z,7.80
2022-10-02T00:02:11.928Z,8.10
2022-10-02T00:03:11.960Z,7.30
2022-10-02T00:04:11.656Z,8.70
2022-10-02T00:05:11.611Z,10.50
2022-10-02T00:06:11.600Z,8.50
2022-10-02T00:07:11.579Z,6.60
2022-10-02T00:08:11.582Z,10.70
2022-10-02T00:09:11.624Z,7.90
2022-10-02T00:10:11.551Z,6.20
2022-10-02T00:11:11.542Z,7.70
2022-10-02T00:12:11.524Z,7.60
2022-10-02T00:13:11.500Z,9.10
2022-10-02T00:14:11.568Z,6.90
2022-10-02T00:15:11.851Z,10.00
2022-10-02T00:16:11.519Z,6.70
2022-10-02T00:17:11.460Z,6.60
2022-10-02T00:18:11.454Z,9.00
2022-10-02T00:19:11.431Z,9.30
2022-10-02T00:20:11.423Z,9.40
2022-10-02T00:21:11.432Z,9.60
2022-10-02T00:22:11.393Z,9.10
2022-10-02T00:23:11.382Z,7.90
2022-10-02T00:24:11.385Z,7.30
2022-10-02T00:25:11.363Z,10.50
2022-10-02T00:26:11.686Z,7.60
2022-10-02T00:27:11.347Z,6.80
2022-10-02T00:28:14.363Z,8.00
2022-10-02T00:29:11.337Z,8.90
2022-10-02T00:30:11.363Z,8.80
2022-10-02T00:31:11.320Z,8.20
2022-10-02T00:32:11.614Z,10.30
2022-10-02T00:33:11.289Z,8.00
2022-10-02T00:34:15.145Z,9.30
2022-10-02T00:35:11.236Z,7.20
2022-10-02T00:36:11.247Z,8.40
2022-10-02T00:37:11.215Z,8.00
2022-10-02T00:38:11.530Z,7.90
2022-10-02T00:39:11.210Z,8.20
2022-10-02T00:40:11.177Z,7.50
2022-10-02T00:41:11.176Z,10.10
2022-10-02T00:42:11.177Z,9.20
2022-10-02T00:43:11.412Z,7.00
2022-10-02T00:44:11.137Z,7.80
2022-10-02T00:45:11.131Z,9.80
2022-10-02T00:46:11.213Z,8.70
2022-10-02T00:47:11.111Z,9.40
2022-10-02T00:48:11.088Z,7.10
2022-10-02T00:49:11.096Z,9.90
2022-10-02T00:50:11.061Z,9.30
2022-10-02T00:51:11.093Z,9.30
2022-10-02T00:52:11.060Z,10.40
2022-10-02T00:53:11.034Z,7.40
2022-10-02T00:54:11.039Z,11.20
2022-10-02T00:55:11.014Z,11.70
2022-10-02T00:56:10.989Z,6.80
2022-10-02T00:57:10.986Z,9.30
2022-10-02T00:58:10.973Z,8.20
2022-10-02T00:59:11.254Z,7.70
2022-10-02T01:00:10.942Z,8.30
2022-10-02T01:01:10.968Z,10.00
2022-10-02T01:02:10.994Z,7.60
2022-10-02T01:03:10.916Z,9.80
2022-10-02T01:04:10.893Z,9.10
2022-10-02T01:05:11.147Z,8.80
2022-10-02T01:06:10.877Z,7.90
2022-10-02T01:07:10.878Z,10.80
2022-10-02T01:08:10.857Z,7.20
2022-10-02T01:09:10.835Z,8.20
2022-10-02T01:10:10.840Z,8.60
2022-10-02T01:11:11.136Z,7.70
2022-10-02T01:12:10.819Z,10.10
2022-10-02T01:13:10.796Z,10.40
2022-10-02T01:14:10.785Z,10.00
2022-10-02T01:15:10.755Z,11.10
2022-10-02T01:16:10.779Z,8.70
2022-10-02T01:17:11.044Z,8.70
2022-10-02T01:18:10.748Z,11.40
2022-10-02T01:19:10.721Z,13.30
2022-10-02T01:20:10.970Z,10.30
2022-10-02T01:21:10.689Z,8.10
2022-10-02T01:22:10.668Z,8.40
2022-10-02T01:23:10.669Z,9.70
2022-10-02T01:24:10.661Z,8.90
2022-10-02T01:25:10.651Z,8.10
2022-10-02T01:26:10.631Z,11.30
2022-10-02T01:27:10.880Z,9.00
2022-10-02T01:28:10.650Z,10.30
2022-10-02T01:29:10.591Z,9.00
2022-10-02T01:30:10.603Z,12.30
2022-10-02T01:31:10.716Z,11.70
2022-10-02T01:32:10.551Z,8.30
2022-10-02T01:33:10.868Z,8.40
2022-10-02T01:34:10.544Z,10.30
2022-10-02T01:35:10.520Z,10.20
2022-10-02T01:36:10.825Z,7.70
2022-10-02T01:37:10.491Z,10.20
2022-10-02T01:38:10.483Z,11.80
2022-10-02T01:39:10.474Z,8.20
2022-10-02T01:40:10.471Z,11.20
2022-10-02T01:41:10.442Z,12.80
2022-10-02T01:42:10.766Z,13.10
2022-10-02T01:43:10.432Z,12.00
2022-10-02T01:44:10.426Z,8.30
2022-10-02T01:45:10.393Z,10.70
2022-10-02T01:46:10.435Z,10.70
2022-10-02T01:47:10.391Z,10.80
2022-10-02T01:48:10.377Z,11.10
2022-10-02T01:49:10.366Z,10.70
2022-10-02T01:50:10.346Z,10.70
2022-10-02T01:51:10.584Z,8.70
2022-10-02T01:52:10.329Z,12.20
2022-10-02T01:53:10.317Z,13.40
2022-10-02T01:54:10.308Z,14.20
2022-10-02T01:55:10.292Z,11.00
2022-10-02T01:56:10.281Z,11.20
2022-10-02T01:57:10.487Z,11.70
2022-10-02T01:58:10.246Z,9.90
2022-10-02T01:59:10.250Z,11.10
2022-10-02T02:00:10.218Z,12.00
2022-10-02T02:01:10.273Z,11.40
2022-10-02T02:02:10.251Z,10.20
2022-10-02T02:03:10.438Z,9.40
2022-10-02T02:04:10.191Z,11.40
2022-10-02T02:05:10.172Z,7.30
2022-10-02T02:06:10.164Z,9.80
2022-10-02T02:07:10.153Z,14.40
2022-10-02T02:08:10.129Z,9.60
2022-10-02T02:09:10.454Z,11.20
2022-10-02T02:10:10.124Z,8.70
2022-10-02T02:11:10.108Z,10.60
2022-10-02T02:12:10.382Z,9.40
2022-10-02T02:13:10.061Z,10.10
2022-10-02T02:14:10.060Z,10.00
2022-10-02T02:15:10.054Z,11.30
2022-10-02T02:16:10.187Z,11.90
2022-10-02T02:17:10.085Z,8.90
2022-10-02T02:18:10.032Z,9.60
2022-10-02T02:19:10.039Z,12.30
2022-10-02T02:20:10.006Z,10.20
2022-10-02T02:21:09.986Z,10.40
2022-10-02T02:22:10.267Z,11.20
2022-10-02T02:23:09.967Z,10.40
2022-10-02T02:24:09.969Z,13.10
2022-10-02T02:25:09.938Z,8.90
2022-10-02T02:26:09.930Z,11.90
2022-10-02T02:27:09.918Z,9.50
2022-10-02T02:28:10.151Z,11.10
2022-10-02T02:29:09.883Z,9.20
2022-10-02T02:30:09.888Z,9.90
2022-10-02T02:31:09.953Z,13.80
2022-10-02T02:32:09.897Z,8.90
2022-10-02T02:33:10.152Z,11.00
2022-10-02T02:34:10.150Z,10.40
2022-10-02T02:35:09.806Z,12.10
2022-10-02T02:36:09.807Z,11.40
2022-10-02T02:37:09.804Z,10.90
2022-10-02T02:38:09.800Z,12.40
2022-10-02T02:39:09.781Z,8.90
2022-10-02T02:40:10.051Z,9.80
2022-10-02T02:41:09.748Z,9.90
2022-10-02T02:42:09.742Z,9.40
2022-10-02T02:43:09.719Z,13.80
2022-10-02T02:44:09.709Z,13.30
2022-10-02T02:45:09.689Z,10.20
2022-10-02T02:46:10.081Z,14.50
2022-10-02T02:47:09.684Z,13.40
2022-10-02T02:48:09.683Z,12.00
2022-10-02T02:49:09.950Z,10.80
2022-10-02T02:50:09.631Z,12.20
2022-10-02T02:51:09.635Z,12.40
2022-10-02T02:52:09.612Z,10.80
2022-10-02T02:53:09.602Z,11.80
2022-10-02T02:54:09.901Z,12.60
2022-10-02T02:55:09.573Z,10.90
2022-10-02T02:56:09.563Z,8.20
2022-10-02T02:57:09.552Z,11.60
2022-10-02T02:58:09.885Z,12.70
2022-10-02T02:59:09.546Z,12.50
2022-10-02T03:00:09.514Z,9.40
2022-10-02T03:01:09.572Z,14.00
2022-10-02T03:02:09.567Z,12.40
2022-10-02T03:03:09.484Z,15.70
2022-10-02T03:04:09.808Z,14.00
2022-10-02T03:05:09.468Z,12.00
2022-10-02T03:06:09.757Z,14.70
2022-10-02T03:07:09.448Z,12.30
2022-10-02T03:08:09.426Z,12.90
2022-10-02T03:09:09.416Z,12.20
2022-10-02T03:10:09.648Z,14.70
2022-10-02T03:11:09.400Z,15.10
2022-10-02T03:12:09.377Z,14.50
2022-10-02T03:13:09.368Z,12.00
2022-10-02T03:14:09.372Z,13.40
2022-10-02T03:15:09.621Z,11.80
2022-10-02T03:16:09.454Z,9.70
2022-10-02T03:17:09.317Z,11.90
2022-10-02T03:18:09.572Z,15.70
2022-10-02T03:19:09.315Z,15.30
2022-10-02T03:20:09.279Z,14.60
2022-10-02T03:21:09.285Z,12.70
2022-10-02T03:22:09.273Z,9.70
2022-10-02T03:23:10.053Z,13.00
2022-10-02T03:24:09.550Z,16.10
2022-10-02T03:25:09.223Z,11.60
2022-10-02T03:26:09.211Z,11.00
2022-10-02T03:27:09.201Z,15.10
2022-10-02T03:28:09.267Z,13.70
2022-10-02T03:29:09.242Z,11.40
2022-10-02T03:30:09.445Z,10.90
2022-10-02T03:31:09.173Z,12.30
2022-10-02T03:32:09.142Z,11.20
2022-10-02T03:33:09.394Z,14.90
2022-10-02T03:34:09.137Z,10.60
2022-10-02T03:35:09.118Z,8.30
2022-10-02T03:36:09.115Z,12.20
2022-10-02T03:37:09.099Z,15.30
2022-10-02T03:38:09.383Z,13.30
2022-10-02T03:39:25.970Z,12.80
2022-10-02T03:40:10.054Z,12.60
2022-10-02T03:41:09.049Z,10.70
2022-10-02T03:42:09.027Z,11.00
2022-10-02T03:43:09.005Z,16.40
2022-10-02T03:44:09.249Z,16.40
2022-10-02T03:45:09.310Z,10.90
2022-10-02T03:46:09.020Z,9.70
2022-10-02T03:47:08.956Z,12.10
2022-10-02T03:48:08.958Z,10.30
2022-10-02T03:49:08.953Z,13.10
2022-10-02T03:50:09.254Z,10.90
2022-10-02T03:51:08.930Z,13.00
2022-10-02T03:52:08.920Z,15.20
2022-10-02T03:53:08.888Z,17.50
2022-10-02T03:54:08.889Z,12.40
2022-10-02T03:55:08.883Z,10.90
2022-10-02T03:56:08.892Z,14.50
2022-10-02T03:57:09.154Z,12.00
2022-10-02T03:58:08.840Z,12.40
2022-10-02T03:59:08.839Z,12.00
2022-10-02T04:00:08.836Z,13.30
2022-10-02T04:01:08.800Z,14.40
2022-10-02T04:02:08.816Z,12.80
2022-10-02T04:03:09.165Z,11.10
2022-10-02T04:04:08.765Z,14.10
2022-10-02T04:05:08.752Z,13.80
2022-10-02T04:06:08.743Z,10.30
2022-10-02T04:07:08.722Z,17.60
2022-10-02T04:08:08.733Z,14.40
2022-10-02T04:09:09.036Z,14.30
2022-10-02T04:10:08.709Z,9.00
2022-10-02T04:11:08.683Z,10.40
2022-10-02T04:12:08.990Z,13.40
2022-10-02T04:13:08.654Z,14.10
2022-10-02T04:14:08.652Z,14.10
2022-10-02T04:15:08.634Z,13.30
2022-10-02T04:16:08.661Z,10.10
2022-10-02T04:17:08.647Z,11.10
2022-10-02T04:18:08.867Z,9.50
2022-10-02T04:19:08.601Z,12.80
2022-10-02T04:20:08.576Z,10.60
2022-10-02T04:21:08.563Z,13.50
2022-10-02T04:22:08.570Z,13.40
2022-10-02T04:23:08.536Z,10.70
2022-10-02T04:24:08.547Z,14.90
2022-10-02T04:25:08.529Z,14.10
2022-10-02T04:26:08.520Z,11.40
2022-10-02T04:27:08.497Z,13.70
2022-10-02T04:28:08.551Z,14.40
2022-10-02T04:29:08.482Z,16.50
2022-10-02T04:30:08.698Z,10.90
2022-10-02T04:31:08.474Z,14.30
2022-10-02T04:32:08.458Z,12.50
2022-10-02T04:33:08.444Z,14.90
2022-10-02T04:34:08.445Z,12.30
2022-10-02T04:35:08.400Z,12.40
2022-10-02T04:36:08.708Z,11.10
2022-10-02T04:37:08.380Z,10.60
2022-10-02T04:38:08.378Z,9.80
2022-10-02T04:39:08.363Z,10.30
2022-10-02T04:40:08.363Z,9.20
2022-10-02T04:41:08.372Z,9.50
2022-10-02T04:42:08.347Z,11.80
2022-10-02T04:43:08.325Z,12.00
2022-10-02T04:44:08.306Z,12.10
2022-10-02T04:45:08.601Z,10.70
2022-10-02T04:46:08.338Z,9.80
2022-10-02T04:47:08.277Z,9.30
2022-10-02T04:48:08.254Z,9.70
2022-10-02T04:49:08.553Z,9.30
2022-10-02T04:50:08.447Z,10.60
2022-10-02T04:51:08.229Z,8.00
2022-10-02T04:52:08.415Z,7.30
2022-10-02T04:53:08.208Z,7.00
2022-10-02T04:54:08.197Z,11.40
2022-10-02T04:55:08.168Z,10.50
2022-10-02T04:56:08.177Z,6.90
2022-10-02T04:57:08.146Z,8.80
2022-10-02T04:58:08.378Z,8.50
2022-10-02T04:59:08.125Z,7.90
2022-10-02T05:00:08.118Z,7.20
2022-10-02T05:01:08.159Z,8.50
2022-10-02T05:02:08.178Z,7.70
2022-10-02T05:03:08.312Z,7.60
2022-10-02T05:04:08.087Z,6.20
2022-10-02T05:05:08.094Z,10.30
2022-10-02T05:06:08.402Z,6.80
2022-10-02T05:07:08.060Z,6.90
2022-10-02T05:08:08.019Z,11.40
2022-10-02T05:09:08.026Z,5.00
2022-10-02T05:10:08.004Z,5.20
2022-10-02T05:11:08.263Z,6.90
2022-10-02T05:12:07.986Z,6.60
2022-10-02T05:13:07.961Z,5.90
2022-10-02T05:14:07.953Z,9.30
2022-10-02T05:15:07.971Z,5.40
2022-10-02T05:16:07.979Z,7.30
2022-10-02T05:17:07.911Z,8.50
2022-10-02T05:18:07.933Z,5.90
2022-10-02T05:19:07.903Z,6.30
2022-10-02T05:20:08.146Z,5.40
2022-10-02T05:21:07.886Z,6.10
2022-10-02T05:22:07.856Z,5.20
2022-10-02T05:23:08.454Z,7.60
2022-10-02T05:24:07.854Z,5.30
2022-10-02T05:25:08.136Z,5.40
2022-10-02T05:26:11.954Z,6.10
2022-10-02T05:27:08.816Z,6.70
2022-10-02T05:28:07.821Z,7.80
2022-10-02T05:29:07.774Z,5.50
2022-10-02T05:30:07.755Z,4.80
2022-10-02T05:31:08.002Z,5.20
2022-10-02T05:32:07.751Z,3.20
2022-10-02T05:33:07.735Z,4.90
2022-10-02T05:34:07.729Z,3.50
2022-10-02T05:35:07.720Z,4.10
2022-10-02T05:36:07.960Z,4.60
2022-10-02T05:37:07.678Z,4.60
2022-10-02T05:38:07.680Z,4.80
2022-10-02T05:39:07.656Z,4.40
2022-10-02T05:40:07.645Z,3.90
2022-10-02T05:41:07.651Z,3.90
2022-10-02T05:42:07.949Z,8.30
2022-10-02T05:43:07.623Z,3.50
2022-10-02T05:44:07.611Z,4.80
2022-10-02T05:45:07.601Z,4.90
2022-10-02T05:46:07.591Z,4.00
2022-10-02T05:47:07.931Z,4.40
2022-10-02T05:48:07.570Z,2.20
2022-10-02T05:49:07.539Z,3.70
2022-10-02T05:50:07.542Z,3.20
2022-10-02T05:51:07.532Z,4.70
2022-10-02T05:52:07.501Z,2.30
2022-10-02T05:53:07.723Z,3.70
2022-10-02T05:54:07.513Z,4.60
2022-10-02T05:55:08.420Z,3.70
2022-10-02T05:56:07.460Z,3.70
2022-10-02T05:57:07.451Z,3.80
2022-10-02T05:58:07.712Z,3.70
2022-10-02T05:59:07.422Z,4.30
2022-10-02T06:00:07.425Z,3.10
2022-10-02T06:01:07.458Z,5.00
2022-10-02T06:02:07.420Z,3.10
2022-10-02T06:03:07.435Z,4.90
2022-10-02T06:04:07.690Z,3.50
2022-10-02T06:05:07.354Z,5.20
2022-10-02T06:06:07.357Z,3.40
2022-10-02T06:07:07.332Z,3.50
2022-10-02T06:08:07.637Z,5.30
2022-10-02T06:09:07.328Z,5.90
2022-10-02T06:10:07.327Z,6.50
2022-10-02T06:11:07.288Z,4.20
2022-10-02T06:12:07.265Z,5.70
2022-10-02T06:13:07.265Z,4.20
2022-10-02T06:14:07.246Z,5.20
2022-10-02T06:15:07.547Z,5.90
2022-10-02T06:16:07.306Z,5.50
2022-10-02T06:17:07.230Z,5.00
2022-10-02T06:18:07.210Z,4.10
2022-10-02T06:19:07.265Z,3.80
2022-10-02T06:20:07.198Z,4.70
2022-10-02T06:21:07.182Z,5.30
2022-10-02T06:22:07.155Z,5.30
2022-10-02T06:23:07.138Z,3.80
2022-10-02T06:24:07.132Z,4.10
2022-10-02T06:25:07.134Z,5.70
2022-10-02T06:26:07.389Z,4.00
2022-10-02T06:27:07.113Z,4.60
2022-10-02T06:28:07.142Z,4.30
2022-10-02T06:29:07.094Z,3.20
2022-10-02T06:30:07.061Z,7.10
2022-10-02T06:31:07.102Z,5.50
2022-10-02T06:32:07.364Z,4.20
2022-10-02T06:33:07.032Z,4.00
2022-10-02T06:34:07.013Z,3.60
2022-10-02T06:35:07.004Z,4.60
2022-10-02T06:36:07.006Z,5.50
2022-10-02T06:37:06.995Z,5.80
2022-10-02T06:38:07.274Z,4.90
2022-10-02T06:39:06.967Z,4.60
2022-10-02T06:40:06.957Z,3.50
2022-10-02T06:41:06.933Z,6.20
2022-10-02T06:42:06.933Z,4.60
2022-10-02T06:43:07.165Z,4.40
2022-10-02T06:44:06.906Z,5.80
2022-10-02T06:45:06.891Z,5.20
2022-10-02T06:46:06.965Z,4.70
2022-10-02T06:47:06.867Z,3.60
2022-10-02T06:48:07.155Z,4.90
2022-10-02T06:49:06.849Z,6.70
2022-10-02T06:50:06.859Z,3.80
2022-10-02T06:51:06.808Z,3.50
2022-10-02T06:52:06.796Z,4.50
2022-10-02T06:53:06.812Z,3.90
2022-10-02T06:54:07.078Z,6.40
2022-10-02T06:55:06.899Z,3.80
2022-10-02T06:56:06.761Z,3.90
2022-10-02T06:57:06.748Z,4.80
2022-10-02T06:58:06.740Z,6.00
2022-10-02T06:59:06.720Z,4.10
2022-10-02T07:00:06.739Z,4.20
2022-10-02T07:01:06.753Z,4.20
2022-10-02T07:02:06.702Z,3.70
2022-10-02T07:03:06.686Z,5.20
2022-10-02T07:04:06.912Z,6.40
2022-10-02T07:05:06.659Z,4.90
2022-10-02T07:06:06.634Z,5.10
2022-10-02T07:07:06.633Z,5.20
2022-10-02T07:08:06.622Z,5.30
2022-10-02T07:09:06.924Z,4.40
2022-10-02T07:10:06.584Z,6.90
2022-10-02T07:11:06.585Z,6.00
2022-10-02T07:12:06.560Z,4.80
2022-10-02T07:13:06.562Z,5.00
2022-10-02T07:14:06.550Z,5.80
2022-10-02T07:15:06.855Z,7.70
2022-10-02T07:16:06.732Z,6.00
2022-10-02T07:17:06.520Z,5.20
2022-10-02T07:18:06.516Z,7.20
2022-10-02T07:19:06.495Z,8.30
2022-10-02T07:20:06.487Z,5.80
2022-10-02T07:21:06.697Z,5.40
2022-10-02T07:22:25.846Z,6.40
2022-10-02T07:23:07.876Z,8.70
2022-10-02T07:24:06.448Z,6.70
2022-10-02T07:25:06.429Z,10.20
2022-10-02T07:26:06.712Z,6.60
2022-10-02T07:27:06.401Z,8.10
2022-10-02T07:28:06.431Z,10.10
2022-10-02T07:29:06.399Z,6.80
2022-10-02T07:30:06.348Z,6.00
2022-10-02T07:31:06.400Z,5.90
2022-10-02T07:32:06.342Z,6.70
2022-10-02T07:33:06.351Z,8.20
2022-10-02T07:34:06.595Z,6.30
2022-10-02T07:35:06.313Z,8.70
2022-10-02T07:36:06.292Z,7.70
2022-10-02T07:37:06.269Z,7.70
2022-10-02T07:38:06.459Z,7.30
2022-10-02T07:39:06.262Z,9.00
2022-10-02T07:40:06.245Z,7.30
2022-10-02T07:41:06.233Z,10.30
2022-10-02T07:42:06.243Z,8.40
2022-10-02T07:43:06.209Z,7.60
2022-10-02T07:44:06.182Z,7.70
2022-10-02T07:45:06.171Z,5.10
2022-10-02T07:46:09.210Z,5.10
2022-10-02T07:47:06.160Z,6.60
2022-10-02T07:48:06.354Z,6.30
2022-10-02T07:49:06.130Z,8.00
2022-10-02T07:50:06.136Z,6.70
2022-10-02T07:51:06.131Z,7.00
2022-10-02T07:52:06.097Z,6.40
2022-10-02T07:53:06.097Z,6.30
2022-10-02T07:54:06.309Z,5.60
2022-10-02T07:55:06.099Z,4.80
2022-10-02T07:56:06.080Z,8.20
2022-10-02T07:57:09.806Z,7.80
2022-10-02T07:58:06.057Z,7.30
2022-10-02T07:59:06.334Z,5.30
2022-10-02T08:00:06.016Z,4.60
2022-10-02T08:01:06.000Z,7.00
2022-10-02T08:02:06.053Z,5.10
2022-10-02T08:03:05.997Z,5.00
2022-10-02T08:04:05.968Z,6.20
2022-10-02T08:05:05.981Z,6.70
2022-10-02T08:06:05.963Z,9.70
2022-10-02T08:07:05.917Z,5.70
2022-10-02T08:08:05.919Z,6.20
2022-10-02T08:09:05.910Z,6.70
2022-10-02T08:10:05.878Z,6.00
2022-10-02T08:11:05.930Z,6.20
2022-10-02T08:12:06.171Z,7.40
2022-10-02T08:13:05.862Z,6.30
2022-10-02T08:14:05.850Z,4.90
2022-10-02T08:15:05.838Z,6.20
2022-10-02T08:16:05.842Z,4.40
2022-10-02T08:17:06.133Z,4.70
2022-10-02T08:18:29.998Z,5.20
2022-10-02T08:19:06.779Z,7.00
2022-10-02T08:20:05.780Z,5.60
2022-10-02T08:21:05.774Z,6.10
2022-10-02T08:22:05.754Z,6.30
2022-10-02T08:23:05.750Z,5.50
2022-10-02T08:24:05.719Z,5.30
2022-10-02T08:25:05.745Z,5.20
2022-10-02T08:26:05.717Z,6.70
2022-10-02T08:27:05.717Z,6.90
2022-10-02T08:28:05.724Z,6.30
2022-10-02T08:29:05.665Z,5.10
2022-10-02T08:30:05.663Z,6.90
2022-10-02T08:31:05.643Z,6.40
2022-10-02T08:32:05.892Z,7.70
2022-10-02T08:33:05.615Z,7.70
2022-10-02T08:34:05.604Z,7.40
2022-10-02T08:35:05.622Z,6.70
2022-10-02T08:36:05.608Z,5.60
2022-10-02T08:37:05.574Z,5.90
2022-10-02T08:38:05.567Z,4.60
2022-10-02T08:39:05.559Z,6.30
2022-10-02T08:40:05.541Z,5.70
2022-10-02T08:41:05.518Z,5.50
2022-10-02T08:42:05.506Z,7.40
2022-10-02T08:43:05.497Z,6.70
2022-10-02T08:44:05.701Z,6.40
2022-10-02T08:45:05.486Z,8.70
2022-10-02T08:46:05.542Z,7.90
2022-10-02T08:47:05.484Z,6.40
2022-10-02T08:48:05.451Z,6.70
2022-10-02T08:49:05.442Z,6.60
2022-10-02T08:50:05.447Z,8.00
2022-10-02T08:51:05.409Z,6.60
2022-10-02T08:52:05.397Z,7.20
2022-10-02T08:53:05.662Z,9.10
2022-10-02T08:54:05.382Z,6.60
2022-10-02T08:55:05.368Z,6.00
2022-10-02T08:56:05.357Z,6.30
2022-10-02T08:57:05.341Z,5.30
2022-10-02T08:58:05.322Z,7.70
2022-10-02T08:59:05.332Z,7.30
2022-10-02T09:00:05.315Z,9.20
2022-10-02T09:01:05.350Z,8.20
2022-10-02T09:02:05.330Z,8.60
2022-10-02T09:03:05.283Z,6.90
2022-10-02T09:04:05.283Z,7.60
2022-10-02T09:05:05.255Z,7.00
2022-10-02T09:06:05.223Z,7.60
2022-10-02T09:07:05.227Z,6.90
2022-10-02T09:08:05.203Z,8.10
2022-10-02T09:09:05.206Z,6.90
2022-10-02T09:10:05.330Z,7.00
2022-10-02T09:11:05.166Z,7.30
2022-10-02T09:12:05.163Z,7.10
2022-10-02T09:13:05.136Z,7.10
2022-10-02T09:14:05.149Z,7.00
2022-10-02T09:15:05.193Z,6.80
2022-10-02T09:16:05.477Z,7.20
2022-10-02T09:17:05.096Z,7.20
2022-10-02T09:18:05.087Z,9.60
2022-10-02T09:19:05.376Z,8.30
2022-10-02T09:20:05.083Z,6.30
2022-10-02T09:21:09.323Z,7.10
2022-10-02T09:22:06.043Z,5.80
2022-10-02T09:23:05.029Z,7.20
2022-10-02T09:24:05.031Z,7.20
2022-10-02T09:25:05.012Z,6.90
2022-10-02T09:26:05.011Z,7.30
2022-10-02T09:27:05.290Z,8.70
2022-10-02T09:28:05.019Z,6.40
2022-10-02T09:29:04.974Z,7.90
2022-10-02T09:30:04.950Z,6.10
2022-10-02T09:31:04.946Z,8.10
2022-10-02T09:32:04.934Z,7.40
2022-10-02T09:33:04.921Z,7.40
2022-10-02T09:34:04.904Z,6.20
2022-10-02T09:35:04.904Z,9.30
2022-10-02T09:36:04.895Z,6.90
2022-10-02T09:37:04.868Z,9.10
2022-10-02T09:38:04.873Z,7.90
2022-10-02T09:39:05.035Z,7.30
2022-10-02T09:40:04.839Z,6.30
2022-10-02T09:41:04.813Z,7.50
2022-10-02T09:42:04.816Z,9.40
2022-10-02T09:43:04.793Z,11.70
2022-10-02T09:44:04.985Z,7.50
2022-10-02T09:45:04.765Z,9.50
2022-10-02T09:46:04.832Z,6.30
2022-10-02T09:47:04.741Z,7.60
2022-10-02T09:48:04.749Z,7.90
2022-10-02T09:49:04.743Z,5.20
2022-10-02T09:50:04.739Z,6.90
2022-10-02T09:51:04.687Z,8.70
2022-10-02T09:52:04.847Z,9.80
2022-10-02T09:53:04.671Z,8.50
2022-10-02T09:54:04.673Z,10.40
2022-10-02T09:55:04.648Z,8.20
2022-10-02T09:56:04.899Z,7.90
2022-10-02T09:57:04.621Z,7.10
2022-10-02T09:58:04.609Z,9.10
2022-10-02T09:59:04.611Z,8.90
2022-10-02T10:00:04.602Z,8.60
2022-10-02T10:01:04.931Z,8.80
2022-10-02T10:02:04.642Z,8.70
2022-10-02T10:03:04.550Z,7.80
2022-10-02T10:04:04.652Z,12.10
2022-10-02T10:05:06.339Z,9.10
2022-10-02T10:06:04.512Z,8.60
2022-10-02T10:07:04.519Z,7.70
2022-10-02T10:08:04.503Z,12.50
2022-10-02T10:09:04.577Z,7.80
2022-10-02T10:10:04.467Z,8.10
2022-10-02T10:11:04.453Z,9.90
2022-10-02T10:12:04.748Z,10.40
2022-10-02T10:13:04.427Z,9.00
2022-10-02T10:14:04.415Z,10.60
2022-10-02T10:15:08.643Z,8.30
2022-10-02T10:16:04.480Z,9.30
2022-10-02T10:17:04.668Z,7.20
2022-10-02T10:18:11.412Z,7.00
2022-10-02T10:19:04.373Z,9.90
2022-10-02T10:20:04.372Z,7.60
2022-10-02T10:21:04.351Z,9.10
2022-10-02T10:22:04.342Z,8.40
2022-10-02T10:23:04.600Z,7.90
2022-10-02T10:24:04.315Z,7.10
2022-10-02T10:25:04.296Z,9.70
2022-10-02T10:26:04.296Z,9.40
2022-10-02T10:27:07.858Z,10.30
2022-10-02T10:28:06.182Z,10.10
2022-10-02T10:29:04.275Z,9.20
2022-10-02T10:30:04.254Z,7.90
2022-10-02T10:31:04.226Z,7.50
2022-10-02T10:32:04.592Z,8.10
2022-10-02T10:33:04.208Z,7.00
2022-10-02T10:34:04.174Z,7.80
2022-10-02T10:35:04.166Z,9.30
2022-10-02T10:36:04.168Z,8.20
2022-10-02T10:37:04.157Z,6.70
2022-10-02T10:38:04.145Z,8.00
2022-10-02T10:39:04.125Z,7.30
2022-10-02T10:40:04.131Z,7.70
2022-10-02T10:41:04.102Z,6.70
2022-10-02T10:42:04.100Z,8.50
2022-10-02T10:43:07.780Z,7.20
2022-10-02T10:44:04.091Z,8.40
2022-10-02T10:45:04.047Z,7.30
2022-10-02T10:46:04.113Z,6.40
2022-10-02T10:47:04.041Z,7.90
2022-10-02T10:48:04.052Z,6.80
2022-10-02T10:49:03.999Z,6.60
2022-10-02T10:50:04.001Z,6.50
2022-10-02T10:51:04.246Z,6.90
2022-10-02T10:52:03.983Z,7.80
2022-10-02T10:53:03.973Z,6.50
2022-10-02T10:54:03.949Z,5.60
2022-10-02T10:55:04.256Z,5.20
2022-10-02T10:56:03.933Z,6.20
2022-10-02T10:57:03.915Z,8.20
2022-10-02T10:58:03.891Z,6.50
2022-10-02T10:59:03.895Z,5.50
2022-10-02T11:00:03.871Z,3.80
2022-10-02T11:01:04.219Z,5.60
2022-10-02T11:02:03.871Z,4.90
2022-10-02T11:03:03.833Z,6.50
2022-10-02T11:04:03.830Z,6.50
2022-10-02T11:05:03.813Z,5.20
2022-10-02T11:06:03.808Z,5.60
2022-10-02T11:07:03.984Z,4.60
2022-10-02T11:08:03.785Z,5.30
2022-10-02T11:09:03.786Z,4.40
2022-10-02T11:10:03.770Z,8.30
2022-10-02T11:11:03.749Z,5.10
2022-10-02T11:12:08.830Z,5.90
2022-10-02T11:13:04.735Z,4.00
2022-10-02T11:14:03.718Z,4.30
2022-10-02T11:15:03.717Z,3.80
2022-10-02T11:16:03.733Z,5.60
2022-10-02T11:17:03.666Z,4.60
2022-10-02T11:18:03.679Z,4.30
2022-10-02T11:19:03.659Z,5.70
2022-10-02T11:20:03.637Z,4.30
2022-10-02T11:21:03.912Z,6.40
2022-10-02T11:22:03.609Z,4.40
2022-10-02T11:23:03.612Z,3.70
2022-10-02T11:24:03.603Z,5.00
2022-10-02T11:25:03.591Z,3.50
2022-10-02T11:26:03.570Z,3.70
2022-10-02T11:27:03.586Z,6.00
2022-10-02T11:28:03.583Z,3.90
2022-10-02T11:29:03.543Z,3.80
2022-10-02T11:30:03.534Z,4.40
2022-10-02T11:31:03.501Z,4.50
2022-10-02T11:32:03.566Z,5.90
2022-10-02T11:33:03.495Z,6.50
2022-10-02T11:34:03.472Z,3.90
2022-10-02T11:35:03.468Z,4.30
2022-10-02T11:36:03.452Z,5.50
2022-10-02T11:37:03.447Z,4.30
2022-10-02T11:38:04.234Z,6.40
2022-10-02T11:39:03.414Z,5.50
2022-10-02T11:40:03.403Z,5.10
2022-10-02T11:41:03.405Z,4.00
2022-10-02T11:42:03.392Z,3.70
2022-10-02T11:43:03.378Z,4.30
2022-10-02T11:44:03.370Z,4.50
2022-10-02T11:45:03.580Z,4.00
2022-10-02T11:46:03.397Z,5.50
2022-10-02T11:47:03.341Z,5.70
2022-10-02T11:48:03.306Z,6.30
2022-10-02T11:49:03.311Z,5.10
2022-10-02T11:50:03.289Z,4.30
2022-10-02T11:51:03.491Z,6.90
2022-10-02T11:52:03.577Z,4.00
2022-10-02T11:53:03.248Z,6.00
2022-10-02T11:54:03.238Z,2.60
2022-10-02T11:55:03.237Z,4.30
2022-10-02T11:56:03.231Z,4.10
2022-10-02T11:57:03.214Z,4.30
2022-10-02T11:58:03.223Z,3.50
2022-10-02T11:59:03.172Z,6.30
2022-10-02T12:00:03.174Z,3.50
2022-10-02T12:01:03.164Z,3.60
2022-10-02T12:02:03.197Z,5.20
2022-10-02T12:03:03.241Z,6.30
2022-10-02T12:04:03.133Z,3.10
2022-10-02T12:05:03.103Z,3.10
2022-10-02T12:06:03.274Z,4.40
2022-10-02T12:07:03.083Z,3.20
2022-10-02T12:08:03.080Z,4.00
2022-10-02T12:09:03.064Z,4.30
2022-10-02T12:10:03.054Z,4.50
2022-10-02T12:11:03.031Z,3.70
2022-10-02T12:12:03.089Z,3.50
2022-10-02T12:13:03.026Z,3.60
2022-10-02T12:14:03.026Z,3.60
2022-10-02T12:15:03.194Z,5.20
2022-10-02T12:16:02.989Z,4.90
2022-10-02T12:17:03.004Z,5.60
2022-10-02T12:18:02.971Z,3.90
2022-10-02T12:19:02.955Z,4.70
2022-10-02T12:20:02.926Z,3.20
2022-10-02T12:21:03.118Z,4.30
2022-10-02T12:22:02.922Z,5.60
2022-10-02T12:23:02.902Z,4.90
2022-10-02T12:24:02.909Z,2.10
2022-10-02T12:25:02.871Z,4.30
2022-10-02T12:26:02.872Z,4.90
2022-10-02T12:27:02.863Z,4.50
2022-10-02T12:28:03.222Z,3.80
2022-10-02T12:29:02.846Z,5.20
2022-10-02T12:30:02.832Z,4.00
2022-10-02T12:31:02.811Z,5.80
2022-10-02T12:32:02.828Z,4.50
2022-10-02T12:33:03.033Z,3.20
2022-10-02T12:34:02.763Z,3.70
2022-10-02T12:35:02.775Z,5.00
2022-10-02T12:36:02.766Z,4.30
2022-10-02T12:37:02.733Z,4.70
2022-10-02T12:38:03.056Z,5.10
2022-10-02T12:39:02.714Z,5.10
2022-10-02T12:40:02.698Z,4.00
2022-10-02T12:41:02.704Z,5.20
2022-10-02T12:42:02.697Z,2.90
2022-10-02T12:43:02.679Z,5.60
2022-10-02T12:44:02.784Z,5.90
2022-10-02T12:45:02.659Z,5.00
2022-10-02T12:46:02.673Z,3.60
2022-10-02T12:47:02.629Z,3.40
2022-10-02T12:48:02.606Z,4.50
2022-10-02T12:49:02.610Z,6.00
2022-10-02T12:50:02.806Z,4.60
2022-10-02T12:51:05.548Z,5.80
2022-10-02T12:52:02.570Z,4.30
2022-10-02T12:53:02.547Z,4.80
2022-10-02T12:54:02.531Z,4.90
2022-10-02T12:55:02.743Z,5.30
2022-10-02T12:56:02.528Z,3.30
2022-10-02T12:57:02.512Z,5.70
2022-10-02T12:58:02.486Z,3.90
2022-10-02T12:59:02.495Z,3.60
2022-10-02T13:00:02.492Z,3.90
2022-10-02T13:01:02.815Z,4.30
2022-10-02T13:02:02.521Z,4.00
2022-10-02T13:03:02.666Z,3.70
2022-10-02T13:04:02.444Z,4.50
2022-10-02T13:05:02.436Z,4.60
2022-10-02T13:06:02.405Z,3.00
2022-10-02T13:07:02.373Z,5.80
2022-10-02T13:08:02.386Z,6.00
2022-10-02T13:09:02.377Z,4.10
2022-10-02T13:10:02.369Z,4.30
2022-10-02T13:11:02.592Z,4.60